sensor_id;sensor_type;location;lat;lon;timestamp;P1;durP1;ratioP1;P2;durP2;ratioP2
20038;SDS011;21737;42.868;25.320;2023-03-01T00:01:40;5.33;;;3.67;;
20038;SDS011;21737;42.868;25.320;2023-03-01T00:04:42;6.93;;;3.47;;
20038;SDS011;21737;42.868;25.320;2023-03-01T00:07:44;4.43;;;3.20;;
20038;SDS011;21737;42.868;25.320;2023-03-01T00:10:46;5.27;;;3.60;;
20038;SDS011;21737;42.868;25.320;2023-03-01T00:13:48;4.63;;;3.47;;
20038;SDS011;21737;42.868;25.320;2023-03-01T00:16:50;7.50;;;3.93;;
20038;SDS011;21737;42.868;25.320;2023-03-01T00:19:52;6.60;;;3.90;;
20038;SDS011;21737;42.868;25.320;2023-03-01T00:22:53;7.73;;;4.40;;
20038;SDS011;21737;42.868;25.320;2023-03-01T00:25:55;8.20;;;4.60;;
20038;SDS011;21737;42.868;25.320;2023-03-01T00:28:57;7.13;;;4.63;;
20038;SDS011;21737;42.868;25.320;2023-03-01T00:31:59;6.33;;;4.20;;
20038;SDS011;21737;42.868;25.320;2023-03-01T00:35:01;6.33;;;4.20;;
20038;SDS011;21737;42.868;25.320;2023-03-01T00:38:03;5.30;;;3.77;;
20038;SDS011;21737;42.868;25.320;2023-03-01T00:41:06;4.97;;;3.50;;
20038;SDS011;21737;42.868;25.320;2023-03-01T00:44:08;6.97;;;4.83;;
20038;SDS011;21737;42.868;25.320;2023-03-01T00:47:09;6.37;;;3.70;;
20038;SDS011;21737;42.868;25.320;2023-03-01T00:50:11;6.23;;;4.00;;
20038;SDS011;21737;42.868;25.320;2023-03-01T00:53:13;5.30;;;3.50;;
20038;SDS011;21737;42.868;25.320;2023-03-01T00:56:14;5.60;;;3.57;;
20038;SDS011;21737;42.868;25.320;2023-03-01T00:59:17;5.90;;;4.10;;
20038;SDS011;21737;42.868;25.320;2023-03-01T01:02:19;5.20;;;3.50;;
20038;SDS011;21737;42.868;25.320;2023-03-01T01:05:21;4.93;;;3.70;;
20038;SDS011;21737;42.868;25.320;2023-03-01T01:08:23;5.77;;;3.90;;
20038;SDS011;21737;42.868;25.320;2023-03-01T01:11:25;8.83;;;4.07;;
20038;SDS011;21737;42.868;25.320;2023-03-01T01:14:27;5.50;;;4.00;;
20038;SDS011;21737;42.868;25.320;2023-03-01T01:17:29;7.23;;;5.03;;
20038;SDS011;21737;42.868;25.320;2023-03-01T01:20:30;6.53;;;4.30;;
20038;SDS011;21737;42.868;25.320;2023-03-01T01:23:32;5.90;;;3.90;;
20038;SDS011;21737;42.868;25.320;2023-03-01T01:26:34;5.60;;;4.30;;
20038;SDS011;21737;42.868;25.320;2023-03-01T01:29:36;5.43;;;4.03;;
20038;SDS011;21737;42.868;25.320;2023-03-01T01:32:38;4.90;;;3.40;;
20038;SDS011;21737;42.868;25.320;2023-03-01T01:35:39;4.33;;;3.40;;
20038;SDS011;21737;42.868;25.320;2023-03-01T01:38:41;5.00;;;3.77;;
20038;SDS011;21737;42.868;25.320;2023-03-01T01:41:43;5.70;;;3.80;;
20038;SDS011;21737;42.868;25.320;2023-03-01T01:44:45;5.07;;;3.60;;
20038;SDS011;21737;42.868;25.320;2023-03-01T01:47:47;6.03;;;3.53;;
20038;SDS011;21737;42.868;25.320;2023-03-01T01:50:52;4.77;;;3.50;;
20038;SDS011;21737;42.868;25.320;2023-03-01T01:53:57;4.77;;;3.70;;
20038;SDS011;21737;42.868;25.320;2023-03-01T01:57:03;5.10;;;3.57;;
20038;SDS011;21737;42.868;25.320;2023-03-01T02:00:07;5.33;;;3.87;;
20038;SDS011;21737;42.868;25.320;2023-03-01T02:03:17;5.63;;;4.10;;
20038;SDS011;21737;42.868;25.320;2023-03-01T02:06:27;7.03;;;4.17;;
20038;SDS011;21737;42.868;25.320;2023-03-01T02:09:30;7.33;;;4.57;;
20038;SDS011;21737;42.868;25.320;2023-03-01T02:12:33;6.37;;;4.30;;
20038;SDS011;21737;42.868;25.320;2023-03-01T02:15:36;6.17;;;4.27;;
20038;SDS011;21737;42.868;25.320;2023-03-01T02:18:39;6.67;;;4.43;;
20038;SDS011;21737;42.868;25.320;2023-03-01T02:21:47;8.63;;;5.93;;
20038;SDS011;21737;42.868;25.320;2023-03-01T02:25:06;7.47;;;4.63;;
20038;SDS011;21737;42.868;25.320;2023-03-01T02:31:19;6.97;;;4.53;;
20038;SDS011;21737;42.868;25.320;2023-03-01T02:34:39;9.47;;;5.50;;
20038;SDS011;21737;42.868;25.320;2023-03-01T02:37:41;7.37;;;4.90;;
20038;SDS011;21737;42.868;25.320;2023-03-01T02:40:43;10.50;;;6.43;;
20038;SDS011;21737;42.868;25.320;2023-03-01T02:43:46;8.47;;;5.10;;
20038;SDS011;21737;42.868;25.320;2023-03-01T02:46:49;7.20;;;4.70;;
20038;SDS011;21737;42.868;25.320;2023-03-01T02:49:52;9.07;;;5.40;;
20038;SDS011;21737;42.868;25.320;2023-03-01T02:53:11;9.70;;;6.17;;
20038;SDS011;21737;42.868;25.320;2023-03-01T02:56:17;8.77;;;5.40;;
20038;SDS011;21737;42.868;25.320;2023-03-01T02:59:19;9.47;;;5.60;;
20038;SDS011;21737;42.868;25.320;2023-03-01T03:05:46;10.30;;;6.40;;
20038;SDS011;21737;42.868;25.320;2023-03-01T03:08:50;9.33;;;5.63;;
20038;SDS011;21737;42.868;25.320;2023-03-01T03:11:51;10.10;;;5.90;;
20038;SDS011;21737;42.868;25.320;2023-03-01T03:14:53;9.77;;;5.80;;
20038;SDS011;21737;42.868;25.320;2023-03-01T03:17:55;9.37;;;5.87;;
20038;SDS011;21737;42.868;25.320;2023-03-01T03:20:57;12.57;;;6.83;;
20038;SDS011;21737;42.868;25.320;2023-03-01T03:23:59;15.70;;;7.80;;
20038;SDS011;21737;42.868;25.320;2023-03-01T03:27:01;12.70;;;6.90;;
20038;SDS011;21737;42.868;25.320;2023-03-01T03:30:03;11.77;;;6.60;;
20038;SDS011;21737;42.868;25.320;2023-03-01T03:33:06;14.33;;;7.40;;
20038;SDS011;21737;42.868;25.320;2023-03-01T03:36:08;17.70;;;8.03;;
20038;SDS011;21737;42.868;25.320;2023-03-01T03:39:14;19.57;;;7.40;;
20038;SDS011;21737;42.868;25.320;2023-03-01T03:42:16;28.90;;;8.33;;
20038;SDS011;21737;42.868;25.320;2023-03-01T03:45:36;20.53;;;8.10;;
20038;SDS011;21737;42.868;25.320;2023-03-01T03:48:39;29.90;;;8.30;;
20038;SDS011;21737;42.868;25.320;2023-03-01T03:51:41;41.07;;;8.97;;
20038;SDS011;21737;42.868;25.320;2023-03-01T03:54:43;46.27;;;10.23;;
20038;SDS011;21737;42.868;25.320;2023-03-01T03:57:45;18.77;;;9.20;;
20038;SDS011;21737;42.868;25.320;2023-03-01T04:00:53;76.97;;;10.27;;
20038;SDS011;21737;42.868;25.320;2023-03-01T04:04:14;35.77;;;11.07;;
20038;SDS011;21737;42.868;25.320;2023-03-01T04:07:19;105.40;;;11.43;;
20038;SDS011;21737;42.868;25.320;2023-03-01T04:10:20;68.93;;;11.50;;
20038;SDS011;21737;42.868;25.320;2023-03-01T04:13:22;71.77;;;9.60;;
20038;SDS011;21737;42.868;25.320;2023-03-01T04:16:26;66.10;;;9.67;;
20038;SDS011;21737;42.868;25.320;2023-03-01T04:19:28;113.80;;;10.83;;
20038;SDS011;21737;42.868;25.320;2023-03-01T04:22:30;95.47;;;10.80;;
20038;SDS011;21737;42.868;25.320;2023-03-01T04:25:33;55.97;;;9.50;;
20038;SDS011;21737;42.868;25.320;2023-03-01T04:28:39;19.33;;;8.30;;
20038;SDS011;21737;42.868;25.320;2023-03-01T04:31:51;19.83;;;8.67;;
20038;SDS011;21737;42.868;25.320;2023-03-01T04:34:54;17.97;;;8.40;;
20038;SDS011;21737;42.868;25.320;2023-03-01T04:37:56;17.33;;;8.40;;
20038;SDS011;21737;42.868;25.320;2023-03-01T04:40:57;40.70;;;8.73;;
20038;SDS011;21737;42.868;25.320;2023-03-01T04:43:59;27.20;;;8.33;;
20038;SDS011;21737;42.868;25.320;2023-03-01T04:47:01;54.77;;;9.47;;
20038;SDS011;21737;42.868;25.320;2023-03-01T04:50:03;37.83;;;10.57;;
20038;SDS011;21737;42.868;25.320;2023-03-01T04:53:05;44.47;;;9.83;;
20038;SDS011;21737;42.868;25.320;2023-03-01T04:56:06;49.67;;;10.37;;
20038;SDS011;21737;42.868;25.320;2023-03-01T04:59:08;76.37;;;11.20;;
20038;SDS011;21737;42.868;25.320;2023-03-01T05:02:11;46.27;;;9.90;;
20038;SDS011;21737;42.868;25.320;2023-03-01T05:05:13;29.03;;;11.23;;
20038;SDS011;21737;42.868;25.320;2023-03-01T05:08:14;37.77;;;8.53;;
20038;SDS011;21737;42.868;25.320;2023-03-01T05:11:19;22.37;;;8.50;;
20038;SDS011;21737;42.868;25.320;2023-03-01T05:14:21;22.67;;;8.17;;
20038;SDS011;21737;42.868;25.320;2023-03-01T05:17:24;24.53;;;9.10;;
20038;SDS011;21737;42.868;25.320;2023-03-01T05:20:26;21.20;;;9.73;;
20038;SDS011;21737;42.868;25.320;2023-03-01T05:23:29;18.37;;;8.87;;
20038;SDS011;21737;42.868;25.320;2023-03-01T05:26:31;18.70;;;8.13;;
20038;SDS011;21737;42.868;25.320;2023-03-01T05:29:32;17.77;;;8.47;;
20038;SDS011;21737;42.868;25.320;2023-03-01T05:32:36;19.10;;;9.03;;
20038;SDS011;21737;42.868;25.320;2023-03-01T05:35:46;21.67;;;8.90;;
20038;SDS011;21737;42.868;25.320;2023-03-01T05:38:50;23.90;;;7.70;;
20038;SDS011;21737;42.868;25.320;2023-03-01T05:41:52;33.93;;;8.87;;
20038;SDS011;21737;42.868;25.320;2023-03-01T05:44:54;19.53;;;9.63;;
20038;SDS011;21737;42.868;25.320;2023-03-01T05:47:55;22.50;;;9.13;;
20038;SDS011;21737;42.868;25.320;2023-03-01T05:50:59;18.63;;;7.70;;
20038;SDS011;21737;42.868;25.320;2023-03-01T05:54:01;16.20;;;7.30;;
20038;SDS011;21737;42.868;25.320;2023-03-01T05:57:03;21.67;;;9.43;;
20038;SDS011;21737;42.868;25.320;2023-03-01T06:00:04;24.20;;;9.90;;
20038;SDS011;21737;42.868;25.320;2023-03-01T06:03:13;24.63;;;7.63;;
20038;SDS011;21737;42.868;25.320;2023-03-01T06:06:15;30.93;;;8.90;;
20038;SDS011;21737;42.868;25.320;2023-03-01T06:09:16;19.67;;;10.47;;
20038;SDS011;21737;42.868;25.320;2023-03-01T06:12:18;35.90;;;9.57;;
20038;SDS011;21737;42.868;25.320;2023-03-01T06:15:20;31.80;;;9.93;;
20038;SDS011;21737;42.868;25.320;2023-03-01T06:18:22;34.30;;;10.20;;
20038;SDS011;21737;42.868;25.320;2023-03-01T06:21:23;35.50;;;11.43;;
20038;SDS011;21737;42.868;25.320;2023-03-01T06:24:25;34.67;;;12.27;;
20038;SDS011;21737;42.868;25.320;2023-03-01T06:27:27;45.30;;;17.00;;
20038;SDS011;21737;42.868;25.320;2023-03-01T06:30:28;55.77;;;12.20;;
20038;SDS011;21737;42.868;25.320;2023-03-01T06:33:30;25.30;;;14.23;;
20038;SDS011;21737;42.868;25.320;2023-03-01T06:36:32;29.03;;;12.03;;
20038;SDS011;21737;42.868;25.320;2023-03-01T06:39:33;24.03;;;10.30;;
20038;SDS011;21737;42.868;25.320;2023-03-01T06:42:35;32.97;;;10.20;;
20038;SDS011;21737;42.868;25.320;2023-03-01T06:45:37;84.83;;;34.53;;
20038;SDS011;21737;42.868;25.320;2023-03-01T06:48:39;53.43;;;19.90;;
20038;SDS011;21737;42.868;25.320;2023-03-01T06:51:40;34.27;;;14.60;;
20038;SDS011;21737;42.868;25.320;2023-03-01T06:54:42;61.40;;;19.97;;
20038;SDS011;21737;42.868;25.320;2023-03-01T06:57:44;46.63;;;14.70;;
20038;SDS011;21737;42.868;25.320;2023-03-01T07:00:45;43.83;;;15.60;;
20038;SDS011;21737;42.868;25.320;2023-03-01T07:03:47;36.53;;;14.87;;
20038;SDS011;21737;42.868;25.320;2023-03-01T07:06:48;56.03;;;12.97;;
20038;SDS011;21737;42.868;25.320;2023-03-01T07:09:56;74.13;;;18.57;;
20038;SDS011;21737;42.868;25.320;2023-03-01T07:12:58;50.20;;;13.07;;
20038;SDS011;21737;42.868;25.320;2023-03-01T07:16:00;29.90;;;13.90;;
20038;SDS011;21737;42.868;25.320;2023-03-01T07:19:02;24.17;;;10.53;;
20038;SDS011;21737;42.868;25.320;2023-03-01T07:22:03;26.17;;;12.87;;
20038;SDS011;21737;42.868;25.320;2023-03-01T07:25:05;20.67;;;10.53;;
20038;SDS011;21737;42.868;25.320;2023-03-01T07:28:07;20.57;;;10.73;;
20038;SDS011;21737;42.868;25.320;2023-03-01T07:31:09;20.37;;;12.60;;
20038;SDS011;21737;42.868;25.320;2023-03-01T07:34:11;14.63;;;8.87;;
20038;SDS011;21737;42.868;25.320;2023-03-01T07:37:12;18.20;;;10.07;;
20038;SDS011;21737;42.868;25.320;2023-03-01T07:40:14;19.43;;;10.77;;
20038;SDS011;21737;42.868;25.320;2023-03-01T07:43:16;15.93;;;8.00;;
20038;SDS011;21737;42.868;25.320;2023-03-01T07:46:17;27.93;;;14.20;;
20038;SDS011;21737;42.868;25.320;2023-03-01T07:49:20;171.23;;;79.90;;
20038;SDS011;21737;42.868;25.320;2023-03-01T07:52:22;86.53;;;48.13;;
20038;SDS011;21737;42.868;25.320;2023-03-01T07:55:24;68.77;;;42.90;;
20038;SDS011;21737;42.868;25.320;2023-03-01T07:58:25;42.07;;;27.60;;
20038;SDS011;21737;42.868;25.320;2023-03-01T08:01:27;56.10;;;34.93;;
20038;SDS011;21737;42.868;25.320;2023-03-01T08:04:29;31.27;;;19.67;;
20038;SDS011;21737;42.868;25.320;2023-03-01T08:07:30;43.40;;;27.70;;
20038;SDS011;21737;42.868;25.320;2023-03-01T08:10:32;34.63;;;20.77;;
20038;SDS011;21737;42.868;25.320;2023-03-01T08:13:34;22.20;;;11.53;;
20038;SDS011;21737;42.868;25.320;2023-03-01T08:16:36;24.13;;;13.77;;
20038;SDS011;21737;42.868;25.320;2023-03-01T08:19:37;17.67;;;10.30;;
20038;SDS011;21737;42.868;25.320;2023-03-01T08:22:39;11.40;;;6.80;;
20038;SDS011;21737;42.868;25.320;2023-03-01T08:25:41;16.33;;;9.20;;
20038;SDS011;21737;42.868;25.320;2023-03-01T08:28:43;16.93;;;10.53;;
20038;SDS011;21737;42.868;25.320;2023-03-01T08:31:45;22.13;;;12.73;;
20038;SDS011;21737;42.868;25.320;2023-03-01T08:34:47;14.13;;;8.63;;
20038;SDS011;21737;42.868;25.320;2023-03-01T08:37:49;16.03;;;10.87;;
20038;SDS011;21737;42.868;25.320;2023-03-01T08:40:50;12.70;;;8.50;;
20038;SDS011;21737;42.868;25.320;2023-03-01T08:43:52;18.03;;;9.60;;
20038;SDS011;21737;42.868;25.320;2023-03-01T08:46:59;14.40;;;8.57;;
20038;SDS011;21737;42.868;25.320;2023-03-01T08:50:02;16.93;;;9.93;;
20038;SDS011;21737;42.868;25.320;2023-03-01T08:53:03;12.70;;;8.60;;
20038;SDS011;21737;42.868;25.320;2023-03-01T08:56:05;15.87;;;8.60;;
20038;SDS011;21737;42.868;25.320;2023-03-01T08:59:07;16.20;;;10.23;;
20038;SDS011;21737;42.868;25.320;2023-03-01T09:02:13;12.07;;;7.60;;
20038;SDS011;21737;42.868;25.320;2023-03-01T09:05:15;15.27;;;7.87;;
20038;SDS011;21737;42.868;25.320;2023-03-01T09:08:18;14.40;;;8.87;;
20038;SDS011;21737;42.868;25.320;2023-03-01T09:11:21;13.13;;;8.17;;
20038;SDS011;21737;42.868;25.320;2023-03-01T09:14:22;9.40;;;6.27;;
20038;SDS011;21737;42.868;25.320;2023-03-01T09:17:24;17.70;;;9.50;;
20038;SDS011;21737;42.868;25.320;2023-03-01T09:20:26;15.00;;;9.00;;
20038;SDS011;21737;42.868;25.320;2023-03-01T09:23:28;14.73;;;9.53;;
20038;SDS011;21737;42.868;25.320;2023-03-01T09:26:29;17.43;;;11.57;;
20038;SDS011;21737;42.868;25.320;2023-03-01T09:29:31;13.30;;;8.60;;
20038;SDS011;21737;42.868;25.320;2023-03-01T09:32:33;8.70;;;6.20;;
20038;SDS011;21737;42.868;25.320;2023-03-01T09:35:35;13.73;;;9.00;;
20038;SDS011;21737;42.868;25.320;2023-03-01T09:38:37;10.23;;;6.10;;
20038;SDS011;21737;42.868;25.320;2023-03-01T09:45:00;13.77;;;7.87;;
20038;SDS011;21737;42.868;25.320;2023-03-01T09:48:03;14.03;;;7.97;;
20038;SDS011;21737;42.868;25.320;2023-03-01T09:51:06;10.20;;;6.53;;
20038;SDS011;21737;42.868;25.320;2023-03-01T09:54:10;7.23;;;4.93;;
20038;SDS011;21737;42.868;25.320;2023-03-01T10:00:47;12.83;;;9.23;;
20038;SDS011;21737;42.868;25.320;2023-03-01T10:10:55;25.27;;;15.17;;
20038;SDS011;21737;42.868;25.320;2023-03-01T10:13:46;13.07;;;8.93;;
20038;SDS011;21737;42.868;25.320;2023-03-01T10:17:10;9.83;;;7.53;;
20038;SDS011;21737;42.868;25.320;2023-03-01T10:20:28;16.47;;;11.30;;
20038;SDS011;21737;42.868;25.320;2023-03-01T10:23:31;16.27;;;11.60;;
20038;SDS011;21737;42.868;25.320;2023-03-01T10:26:43;15.00;;;9.47;;
20038;SDS011;21737;42.868;25.320;2023-03-01T10:32:55;14.23;;;10.03;;
20038;SDS011;21737;42.868;25.320;2023-03-01T10:35:58;10.83;;;6.97;;
20038;SDS011;21737;42.868;25.320;2023-03-01T10:39:00;7.83;;;5.03;;
20038;SDS011;21737;42.868;25.320;2023-03-01T10:42:18;7.07;;;5.47;;
20038;SDS011;21737;42.868;25.320;2023-03-01T10:48:27;8.53;;;5.73;;
20038;SDS011;21737;42.868;25.320;2023-03-01T10:51:29;9.87;;;6.53;;
20038;SDS011;21737;42.868;25.320;2023-03-01T10:54:32;9.40;;;5.53;;
20038;SDS011;21737;42.868;25.320;2023-03-01T10:57:35;9.50;;;6.23;;
20038;SDS011;21737;42.868;25.320;2023-03-01T11:00:50;10.53;;;6.33;;
20038;SDS011;21737;42.868;25.320;2023-03-01T11:07:08;8.93;;;5.57;;
20038;SDS011;21737;42.868;25.320;2023-03-01T11:10:15;6.10;;;4.00;;
20038;SDS011;21737;42.868;25.320;2023-03-01T11:13:18;10.37;;;7.30;;
20038;SDS011;21737;42.868;25.320;2023-03-01T11:16:25;10.93;;;7.67;;
20038;SDS011;21737;42.868;25.320;2023-03-01T11:19:27;20.37;;;13.27;;
20038;SDS011;21737;42.868;25.320;2023-03-01T11:22:29;13.77;;;8.60;;
20038;SDS011;21737;42.868;25.320;2023-03-01T11:25:42;12.03;;;7.30;;
20038;SDS011;21737;42.868;25.320;2023-03-01T11:28:44;5.47;;;3.77;;
20038;SDS011;21737;42.868;25.320;2023-03-01T11:31:49;17.13;;;7.47;;
20038;SDS011;21737;42.868;25.320;2023-03-01T11:38:26;8.13;;;4.93;;
20038;SDS011;21737;42.868;25.320;2023-03-01T11:41:32;5.77;;;4.30;;
20038;SDS011;21737;42.868;25.320;2023-03-01T11:44:35;9.53;;;6.73;;
20038;SDS011;21737;42.868;25.320;2023-03-01T11:50:56;11.07;;;8.20;;
20038;SDS011;21737;42.868;25.320;2023-03-01T11:57:11;8.87;;;5.80;;
20038;SDS011;21737;42.868;25.320;2023-03-01T12:06:32;11.67;;;5.63;;
20038;SDS011;21737;42.868;25.320;2023-03-01T12:09:38;20.23;;;11.17;;
20038;SDS011;21737;42.868;25.320;2023-03-01T12:35:05;20.60;;;10.60;;
20038;SDS011;21737;42.868;25.320;2023-03-01T12:38:17;15.00;;;8.33;;
20038;SDS011;21737;42.868;25.320;2023-03-01T12:50:59;22.40;;;12.97;;
20038;SDS011;21737;42.868;25.320;2023-03-01T12:54:05;15.00;;;9.43;;
20038;SDS011;21737;42.868;25.320;2023-03-01T12:57:11;31.37;;;18.97;;
20038;SDS011;21737;42.868;25.320;2023-03-01T13:00:19;17.83;;;11.13;;
20038;SDS011;21737;42.868;25.320;2023-03-01T13:03:28;20.80;;;11.53;;
20038;SDS011;21737;42.868;25.320;2023-03-01T13:15:50;17.03;;;9.47;;
20038;SDS011;21737;42.868;25.320;2023-03-01T13:19:05;29.90;;;14.70;;
20038;SDS011;21737;42.868;25.320;2023-03-01T13:26:07;30.37;;;16.00;;
20038;SDS011;21737;42.868;25.320;2023-03-01T13:29:11;68.00;;;34.60;;
20038;SDS011;21737;42.868;25.320;2023-03-01T13:32:27;47.07;;;21.97;;
20038;SDS011;21737;42.868;25.320;2023-03-01T13:35:44;57.60;;;30.67;;
20038;SDS011;21737;42.868;25.320;2023-03-01T13:38:56;63.03;;;33.70;;
20038;SDS011;21737;42.868;25.320;2023-03-01T13:42:01;82.20;;;38.53;;
20038;SDS011;21737;42.868;25.320;2023-03-01T13:45:22;102.43;;;58.13;;
20038;SDS011;21737;42.868;25.320;2023-03-01T13:48:27;36.47;;;18.53;;
20038;SDS011;21737;42.868;25.320;2023-03-01T13:51:29;44.47;;;21.10;;
20038;SDS011;21737;42.868;25.320;2023-03-01T13:54:32;22.03;;;10.37;;
20038;SDS011;21737;42.868;25.320;2023-03-01T13:57:34;19.73;;;11.17;;
20038;SDS011;21737;42.868;25.320;2023-03-01T14:00:37;16.57;;;9.67;;
20038;SDS011;21737;42.868;25.320;2023-03-01T14:03:40;16.27;;;10.87;;
20038;SDS011;21737;42.868;25.320;2023-03-01T14:06:43;11.63;;;6.20;;
20038;SDS011;21737;42.868;25.320;2023-03-01T14:09:45;17.00;;;8.83;;
20038;SDS011;21737;42.868;25.320;2023-03-01T14:19:31;22.90;;;12.87;;
20038;SDS011;21737;42.868;25.320;2023-03-01T14:22:35;21.70;;;11.23;;
20038;SDS011;21737;42.868;25.320;2023-03-01T14:25:37;17.13;;;10.30;;
20038;SDS011;21737;42.868;25.320;2023-03-01T14:28:40;19.13;;;12.33;;
20038;SDS011;21737;42.868;25.320;2023-03-01T14:31:46;16.30;;;10.23;;
20038;SDS011;21737;42.868;25.320;2023-03-01T14:34:54;13.03;;;8.03;;
20038;SDS011;21737;42.868;25.320;2023-03-01T14:37:56;13.30;;;7.70;;
20038;SDS011;21737;42.868;25.320;2023-03-01T14:40:59;13.03;;;7.60;;
20038;SDS011;21737;42.868;25.320;2023-03-01T14:44:11;11.33;;;7.80;;
20038;SDS011;21737;42.868;25.320;2023-03-01T14:47:32;19.30;;;10.70;;
20038;SDS011;21737;42.868;25.320;2023-03-01T14:50:41;34.47;;;15.83;;
20038;SDS011;21737;42.868;25.320;2023-03-01T14:53:43;65.10;;;25.17;;
20038;SDS011;21737;42.868;25.320;2023-03-01T14:56:52;94.97;;;37.40;;
20038;SDS011;21737;42.868;25.320;2023-03-01T14:59:54;22.33;;;12.30;;
20038;SDS011;21737;42.868;25.320;2023-03-01T15:02:58;28.80;;;17.30;;
20038;SDS011;21737;42.868;25.320;2023-03-01T15:06:02;36.73;;;22.50;;
20038;SDS011;21737;42.868;25.320;2023-03-01T15:09:05;59.43;;;32.00;;
20038;SDS011;21737;42.868;25.320;2023-03-01T15:15:36;45.00;;;22.87;;
20038;SDS011;21737;42.868;25.320;2023-03-01T15:18:46;31.20;;;17.43;;
20038;SDS011;21737;42.868;25.320;2023-03-01T15:21:49;34.73;;;19.70;;
20038;SDS011;21737;42.868;25.320;2023-03-01T15:24:51;30.60;;;17.07;;
20038;SDS011;21737;42.868;25.320;2023-03-01T15:27:54;57.03;;;25.87;;
20038;SDS011;21737;42.868;25.320;2023-03-01T15:40:48;32.63;;;15.80;;
20038;SDS011;21737;42.868;25.320;2023-03-01T15:43:50;40.77;;;21.03;;
20038;SDS011;21737;42.868;25.320;2023-03-01T15:46:55;24.27;;;13.50;;
20038;SDS011;21737;42.868;25.320;2023-03-01T15:49:58;20.50;;;12.03;;
20038;SDS011;21737;42.868;25.320;2023-03-01T15:53:00;19.97;;;13.27;;
20038;SDS011;21737;42.868;25.320;2023-03-01T15:56:03;18.63;;;12.20;;
20038;SDS011;21737;42.868;25.320;2023-03-01T15:59:04;23.47;;;12.60;;
20038;SDS011;21737;42.868;25.320;2023-03-01T16:02:14;15.93;;;11.00;;
20038;SDS011;21737;42.868;25.320;2023-03-01T16:05:18;22.77;;;14.33;;
20038;SDS011;21737;42.868;25.320;2023-03-01T16:08:20;22.70;;;13.67;;
20038;SDS011;21737;42.868;25.320;2023-03-01T16:11:22;21.07;;;12.70;;
20038;SDS011;21737;42.868;25.320;2023-03-01T16:14:24;17.97;;;11.93;;
20038;SDS011;21737;42.868;25.320;2023-03-01T16:17:25;29.80;;;18.00;;
20038;SDS011;21737;42.868;25.320;2023-03-01T16:20:27;31.17;;;18.30;;
20038;SDS011;21737;42.868;25.320;2023-03-01T16:23:33;31.63;;;19.33;;
20038;SDS011;21737;42.868;25.320;2023-03-01T16:26:35;253.70;;;65.53;;
20038;SDS011;21737;42.868;25.320;2023-03-01T16:29:37;160.37;;;54.07;;
20038;SDS011;21737;42.868;25.320;2023-03-01T16:32:39;73.83;;;36.63;;
20038;SDS011;21737;42.868;25.320;2023-03-01T16:35:41;234.73;;;116.63;;
20038;SDS011;21737;42.868;25.320;2023-03-01T16:38:44;67.47;;;37.07;;
20038;SDS011;21737;42.868;25.320;2023-03-01T16:41:50;68.00;;;37.83;;
20038;SDS011;21737;42.868;25.320;2023-03-01T16:44:57;40.93;;;24.57;;
20038;SDS011;21737;42.868;25.320;2023-03-01T16:47:59;39.70;;;23.67;;
20038;SDS011;21737;42.868;25.320;2023-03-01T16:51:01;56.83;;;29.17;;
20038;SDS011;21737;42.868;25.320;2023-03-01T16:54:02;67.43;;;41.23;;
20038;SDS011;21737;42.868;25.320;2023-03-01T16:57:06;28.83;;;18.53;;
20038;SDS011;21737;42.868;25.320;2023-03-01T17:00:08;41.23;;;25.07;;
20038;SDS011;21737;42.868;25.320;2023-03-01T17:03:14;53.80;;;30.97;;
20038;SDS011;21737;42.868;25.320;2023-03-01T17:06:19;52.30;;;29.53;;
20038;SDS011;21737;42.868;25.320;2023-03-01T17:09:22;43.03;;;24.53;;
20038;SDS011;21737;42.868;25.320;2023-03-01T17:12:23;43.77;;;29.23;;
20038;SDS011;21737;42.868;25.320;2023-03-01T17:15:25;26.67;;;15.90;;
20038;SDS011;21737;42.868;25.320;2023-03-01T17:18:26;44.83;;;24.23;;
20038;SDS011;21737;42.868;25.320;2023-03-01T17:21:28;28.87;;;17.30;;
20038;SDS011;21737;42.868;25.320;2023-03-01T17:24:33;32.70;;;18.13;;
20038;SDS011;21737;42.868;25.320;2023-03-01T17:27:36;40.03;;;22.80;;
20038;SDS011;21737;42.868;25.320;2023-03-01T17:30:40;65.87;;;31.30;;
20038;SDS011;21737;42.868;25.320;2023-03-01T17:33:42;37.93;;;21.47;;
20038;SDS011;21737;42.868;25.320;2023-03-01T17:36:43;40.47;;;24.63;;
20038;SDS011;21737;42.868;25.320;2023-03-01T17:39:47;38.17;;;23.03;;
20038;SDS011;21737;42.868;25.320;2023-03-01T17:42:48;33.73;;;20.93;;
20038;SDS011;21737;42.868;25.320;2023-03-01T17:45:50;43.80;;;25.27;;
20038;SDS011;21737;42.868;25.320;2023-03-01T17:48:52;50.77;;;28.43;;
20038;SDS011;21737;42.868;25.320;2023-03-01T17:51:54;45.30;;;26.33;;
20038;SDS011;21737;42.868;25.320;2023-03-01T17:54:56;36.90;;;20.90;;
20038;SDS011;21737;42.868;25.320;2023-03-01T17:57:58;43.53;;;23.10;;
20038;SDS011;21737;42.868;25.320;2023-03-01T18:01:13;35.80;;;20.13;;
20038;SDS011;21737;42.868;25.320;2023-03-01T18:04:15;47.80;;;26.70;;
20038;SDS011;21737;42.868;25.320;2023-03-01T18:07:18;56.53;;;29.87;;
20038;SDS011;21737;42.868;25.320;2023-03-01T18:10:20;49.40;;;28.27;;
20038;SDS011;21737;42.868;25.320;2023-03-01T18:13:22;42.50;;;25.40;;
20038;SDS011;21737;42.868;25.320;2023-03-01T18:16:23;32.30;;;19.57;;
20038;SDS011;21737;42.868;25.320;2023-03-01T18:19:28;34.30;;;20.70;;
20038;SDS011;21737;42.868;25.320;2023-03-01T18:22:30;31.67;;;18.93;;
20038;SDS011;21737;42.868;25.320;2023-03-01T18:25:32;36.17;;;20.53;;
20038;SDS011;21737;42.868;25.320;2023-03-01T18:28:34;40.03;;;21.30;;
20038;SDS011;21737;42.868;25.320;2023-03-01T18:31:36;38.77;;;22.20;;
20038;SDS011;21737;42.868;25.320;2023-03-01T18:34:37;48.87;;;26.47;;
20038;SDS011;21737;42.868;25.320;2023-03-01T18:37:39;62.90;;;33.63;;
20038;SDS011;21737;42.868;25.320;2023-03-01T18:40:42;46.63;;;27.63;;
20038;SDS011;21737;42.868;25.320;2023-03-01T18:43:43;45.67;;;27.13;;
20038;SDS011;21737;42.868;25.320;2023-03-01T18:46:45;52.63;;;31.33;;
20038;SDS011;21737;42.868;25.320;2023-03-01T18:49:47;44.83;;;26.47;;
20038;SDS011;21737;42.868;25.320;2023-03-01T18:52:48;43.67;;;26.07;;
20038;SDS011;21737;42.868;25.320;2023-03-01T18:55:50;39.67;;;23.97;;
20038;SDS011;21737;42.868;25.320;2023-03-01T18:58:52;42.33;;;25.63;;
20038;SDS011;21737;42.868;25.320;2023-03-01T19:01:53;43.00;;;26.07;;
20038;SDS011;21737;42.868;25.320;2023-03-01T19:04:55;43.93;;;25.40;;
20038;SDS011;21737;42.868;25.320;2023-03-01T19:07:57;36.37;;;21.37;;
20038;SDS011;21737;42.868;25.320;2023-03-01T19:11:00;40.27;;;23.43;;
20038;SDS011;21737;42.868;25.320;2023-03-01T19:14:02;43.83;;;24.70;;
20038;SDS011;21737;42.868;25.320;2023-03-01T19:17:04;42.13;;;23.67;;
20038;SDS011;21737;42.868;25.320;2023-03-01T19:20:06;39.43;;;23.37;;
20038;SDS011;21737;42.868;25.320;2023-03-01T19:23:08;43.10;;;23.80;;
20038;SDS011;21737;42.868;25.320;2023-03-01T19:26:14;40.60;;;22.27;;
20038;SDS011;21737;42.868;25.320;2023-03-01T19:29:16;39.00;;;22.80;;
20038;SDS011;21737;42.868;25.320;2023-03-01T19:32:18;45.00;;;21.33;;
20038;SDS011;21737;42.868;25.320;2023-03-01T19:35:19;36.87;;;20.33;;
20038;SDS011;21737;42.868;25.320;2023-03-01T19:38:21;35.27;;;18.73;;
20038;SDS011;21737;42.868;25.320;2023-03-01T19:41:23;33.10;;;18.73;;